Terminal Aerodrome Forecast
Issued by NWS

Home | Current Version | Previous Version | Text Only | Print | Product List | Glossary On
Versions: 1 2 3 4 5 6 7 8 9 10 11 12 13 14 15 16 17 18
000
FTUS45 KRIW 042130 AAA
TAFLND
TAF AMD
KLND 042130Z 0422/0518 19015G23KT P6SM FEW110 SCT200
     FM050100 19013KT P6SM VCTS SCT110CB
     FM050700 VRB05KT P6SM FEW110 SCT150
     FM051700 20009KT P6SM FEW080=

USA.gov is the U.S. government's official web portal to all federal, state and local government web resources and services.